Iskareen — DC7661 — position and weather

sailwx.info

Track history (hours):
 
Tides and Currents Weather Stations Pressure Air Temp Water Temp Dewpoint Dewpoint Depression Visibility Wind Speed Wind Dir Waves Ship Positions

Iskareen

Last reported at 2018-May-09 19:16 UTC. Time now 2018-Jun-19 08:39 UTC.
Position N 17°19' W 061°46'.
Warning: this ship's position is 40 days out of date.

Type: Sailing vessel. MMSI: 211652700.

Date/timePositionNaut miles runAvg speedWind from/ knotsBaromVisibWave heightAir tempDewpointWater temp
2018-May-09 19:16N 17°19' W 061°46'311.8
2018-May-09 19:00N 17°16' W 061°44'612.2
2018-May-09 18:30N 17°11' W 061°41'611.5
2018-May-09 18:00N 17°05' W 061°39'4 8.7
2018-May-09 17:30N 17°01' W 061°40'3 5.3
2018-May-09 17:00N 16°60' W 061°43'3 5.3
2018-May-09 16:30N 16°60' W 061°45'1 1.9
2018-May-09 16:00N 16°59' W 061°46'1 1.4
2018-May-09 15:30N 16°60' W 061°46'1 2.6
2018-May-09 15:00N 17°01' W 061°47'1 1.2
2018-May-09 14:28N 17°01' W 061°46'0 0.0
2018-May-07 22:13N 17°01' W 061°46'0 0.0
2018-May-07 21:58N 17°01' W 061°46'0 0.0
2018-May-07 21:28N 17°01' W 061°46'0 0.0
2018-May-07 20:58N 17°01' W 061°46'0 0.0
2018-May-07 20:28N 17°01' W 061°46'0 0.0
2018-May-07 19:58N 17°01' W 061°46'0 0.8
2018-May-07 19:30N 17°01' W 061°47'2 3.5
2018-May-07 19:00N 17°00' W 061°48'3 5.4
2018-May-07 18:31N 16°58' W 061°50'3 6.3
2018-May-07 18:00N 16°56' W 061°52'2 3.8
2018-May-07 17:30N 16°57' W 061°54'3 4.8
2018-May-07 16:56N 16°59' W 061°56'3 7.0
2018-May-07 16:31N 16°57' W 061°57'4 7.1
2018-May-07 16:00N 16°54' W 061°60'3 6.5
2018-May-07 15:29N 16°52' W 062°02'7 5.2
2018-May-07 14:04N 16°48' W 062°09'0 6.4
2018-May-07 14:00N 16°49' W 062°09'  
2018-Apr-29 21:27N 16°44' W 061°32'4 7.3
2018-Apr-29 20:56N 16°47' W 061°34'3 7.5
2018-Apr-29 20:30N 16°49' W 061°37'4 7.5
2018-Apr-29 20:00N 16°52' W 061°39'4 7.8
2018-Apr-29 19:30N 16°54' W 061°42'  
Track history (hours):
 
Tides and Currents Weather Stations Pressure Air Temp Water Temp Dewpoint Dewpoint Depression Visibility Wind Speed Wind Dir Waves Ship Positions

Iskareen

Last reported at 2018-May-09 19:16 UTC. Time now 2018-Jun-19 08:39 UTC.
Position N 17°19' W 061°46'.
Warning: this ship's position is 40 days out of date.

Type: Sailing vessel. MMSI: 211652700.

Date/timePositionNaut miles runAvg speedWind from/ knotsBaromVisibWave heightAir tempDewpointWater temp
2018-May-09 19:16N 17°19' W 061°46'311.8
2018-May-09 19:00N 17°16' W 061°44'612.2
2018-May-09 18:30N 17°11' W 061°41'611.5
2018-May-09 18:00N 17°05' W 061°39'4 8.7
2018-May-09 17:30N 17°01' W 061°40'3 5.3
2018-May-09 17:00N 16°60' W 061°43'3 5.3
2018-May-09 16:30N 16°60' W 061°45'1 1.9
2018-May-09 16:00N 16°59' W 061°46'1 1.4
2018-May-09 15:30N 16°60' W 061°46'1 2.6
2018-May-09 15:00N 17°01' W 061°47'1 1.2
2018-May-09 14:28N 17°01' W 061°46'0 0.0
2018-May-07 22:13N 17°01' W 061°46'0 0.0
2018-May-07 21:58N 17°01' W 061°46'0 0.0
2018-May-07 21:28N 17°01' W 061°46'0 0.0
2018-May-07 20:58N 17°01' W 061°46'0 0.0
2018-May-07 20:28N 17°01' W 061°46'0 0.0
2018-May-07 19:58N 17°01' W 061°46'0 0.8
2018-May-07 19:30N 17°01' W 061°47'2 3.5
2018-May-07 19:00N 17°00' W 061°48'3 5.4
2018-May-07 18:31N 16°58' W 061°50'3 6.3
2018-May-07 18:00N 16°56' W 061°52'2 3.8
2018-May-07 17:30N 16°57' W 061°54'3 4.8
2018-May-07 16:56N 16°59' W 061°56'3 7.0
2018-May-07 16:31N 16°57' W 061°57'4 7.1
2018-May-07 16:00N 16°54' W 061°60'3 6.5
2018-May-07 15:29N 16°52' W 062°02'7 5.2
2018-May-07 14:04N 16°48' W 062°09'0 6.4
2018-May-07 14:00N 16°49' W 062°09'  
2018-Apr-29 21:27N 16°44' W 061°32'4 7.3
2018-Apr-29 20:56N 16°47' W 061°34'3 7.5
2018-Apr-29 20:30N 16°49' W 061°37'4 7.5
2018-Apr-29 20:00N 16°52' W 061°39'4 7.8
2018-Apr-29 19:30N 16°54' W 061°42'  

Dump ship's entire track history